Time;durP1;ratioP1;P1;durP2;ratioP2;P2;SDS_P1;SDS_P2;PMS_P1;PMS_P2;Temp;Humidity;BMP_temperature;BMP_pressure;BME280_temperature;BME280_humidity;BME280_pressure;Samples;Min_cycle;Max_cycle;Signal;HPM_P1;HPM_P2
2023/05/13 00:00:37;;;;;;;14.77;12.77;;;14.70;98.20;;;;;;5075424;28;20157;-71
2023/05/13 00:03:02;;;;;;;12.80;11.60;;;14.70;97.70;;;;;;5075334;28;20175;-71
2023/05/13 00:05:28;;;;;;;13.30;11.80;;;14.70;99.20;;;;;;5075258;28;20157;-71
2023/05/13 00:07:55;;;;;;;15.10;11.90;;;14.70;99.60;;;;;;5075077;28;20165;-70
2023/05/13 00:10:21;;;;;;;11.77;10.77;;;14.60;99.90;;;;;;5075036;28;20173;-70
2023/05/13 00:12:46;;;;;;;18.50;13.07;;;14.60;99.90;;;;;;5074896;28;20237;-70
2023/05/13 00:15:12;;;;;;;18.63;16.63;;;14.50;99.90;;;;;;5074992;28;20624;-70
2023/05/13 00:17:38;;;;;;;14.40;12.93;;;14.50;99.90;;;;;;5074894;28;20201;-71
2023/05/13 00:20:05;;;;;;;21.27;19.00;;;14.50;99.90;;;;;;5073754;28;20223;-69
2023/05/13 00:22:31;;;;;;;17.13;15.37;;;14.50;99.90;;;;;;5075003;28;20222;-71
2023/05/13 00:24:56;;;;;;;13.20;11.70;;;14.60;99.90;;;;;;5074539;28;20573;-70
2023/05/13 00:27:22;;;;;;;13.67;11.00;;;14.60;99.90;;;;;;5074980;28;20172;-71
2023/05/13 00:29:47;;;;;;;12.90;11.77;;;14.50;99.90;;;;;;5056947;28;20552;-70
2023/05/13 00:32:13;;;;;;;14.23;12.83;;;14.50;99.90;;;;;;5074741;28;20173;-71
2023/05/13 00:34:39;;;;;;;52.07;20.37;;;14.50;99.90;;;;;;5074475;28;20165;-71
2023/05/13 00:37:05;;;;;;;18.07;13.73;;;14.40;99.90;;;;;;5074340;28;20212;-71
2023/05/13 00:39:30;;;;;;;14.40;12.97;;;14.40;99.90;;;;;;5074353;28;20254;-69
2023/05/13 00:41:58;;;;;;;15.27;12.97;;;14.40;99.90;;;;;;5074599;28;20628;-69
2023/05/13 00:44:23;;;;;;;14.83;12.83;;;14.40;99.90;;;;;;5074384;28;20644;-70
2023/05/13 00:46:49;;;;;;;15.03;12.90;;;14.40;99.90;;;;;;5074369;28;20207;-71
2023/05/13 00:49:15;;;;;;;14.77;12.27;;;14.40;99.90;;;;;;5074406;28;20177;-71
2023/05/13 00:51:40;;;;;;;14.57;12.27;;;14.30;99.90;;;;;;5074165;28;20680;-68
2023/05/13 00:54:06;;;;;;;14.13;12.00;;;14.30;99.90;;;;;;5074098;28;20191;-71
2023/05/13 00:56:32;;;;;;;14.43;13.13;;;14.30;99.90;;;;;;5074280;28;20671;-71
2023/05/13 00:58:57;;;;;;;13.97;12.57;;;14.20;99.90;;;;;;5074217;28;20671;-71
2023/05/13 01:01:23;;;;;;;15.10;13.40;;;14.20;99.90;;;;;;5074149;28;20180;-70
2023/05/13 01:04:19;;;;;;;14.40;12.90;;;14.20;99.90;;;;;;5074151;28;20161;-70
2023/05/13 01:07:09;;;;;;;15.47;13.77;;;14.20;99.90;;;;;;5069384;28;20204;-70
2023/05/13 01:09:58;;;;;;;14.97;13.47;;;14.20;99.90;;;;;;5073714;28;20203;-69
2023/05/13 01:12:35;;;;;;;15.37;13.10;;;14.10;99.90;;;;;;5073863;28;20196;-71
2023/05/13 01:15:15;;;;;;;14.23;12.87;;;14.10;99.90;;;;;;5073922;28;20165;-70
2023/05/13 01:18:11;;;;;;;14.80;13.40;;;14.10;99.90;;;;;;5073746;28;20205;-70
2023/05/13 01:20:41;;;;;;;15.17;13.70;;;14.10;99.90;;;;;;5073021;28;20684;-70
2023/05/13 01:23:07;;;;;;;14.40;13.07;;;14.10;99.90;;;;;;5073227;28;20219;-71
2023/05/13 01:25:34;;;;;;;16.63;14.67;;;14.10;99.90;;;;;;5073491;28;20207;-69
2023/05/13 01:28:00;;;;;;;16.20;14.60;;;14.10;99.90;;;;;;5073730;28;20180;-70
2023/05/13 01:30:26;;;;;;;16.03;14.37;;;14.20;99.90;;;;;;5073509;28;20219;-70
2023/05/13 01:32:52;;;;;;;16.20;14.70;;;14.30;99.90;;;;;;5073617;28;20708;-71
2023/05/13 01:35:19;;;;;;;16.83;14.93;;;14.20;99.90;;;;;;5073502;28;20513;-70
2023/05/13 01:37:46;;;;;;;16.90;15.10;;;14.30;99.90;;;;;;5072916;28;20289;-70
2023/05/13 01:40:12;;;;;;;16.30;14.80;;;14.30;99.90;;;;;;5073431;28;20167;-70
2023/05/13 01:42:38;;;;;;;16.73;15.07;;;14.40;99.90;;;;;;5073360;28;20295;-70
2023/05/13 01:45:06;;;;;;;16.80;15.13;;;14.40;99.90;;;;;;5073248;28;20237;-70
2023/05/13 01:47:31;;;;;;;17.70;15.97;;;14.30;99.90;;;;;;5073348;28;20175;-70
2023/05/13 01:49:57;;;;;;;17.43;15.57;;;14.30;99.90;;;;;;5073281;28;20247;-70
2023/05/13 01:52:22;;;;;;;16.90;15.37;;;14.20;99.90;;;;;;5072789;28;20631;-70
2023/05/13 01:54:48;;;;;;;17.43;15.83;;;14.20;99.90;;;;;;5073055;28;20161;-70
2023/05/13 01:57:14;;;;;;;22.30;15.90;;;14.20;99.90;;;;;;5073176;28;20204;-70
2023/05/13 01:59:39;;;;;;;18.50;16.03;;;14.30;99.90;;;;;;5073444;28;20275;-70
2023/05/13 02:02:05;;;;;;;17.07;15.47;;;14.30;99.90;;;;;;5073001;28;20164;-70
2023/05/13 02:04:31;;;;;;;18.40;16.43;;;14.40;99.90;;;;;;5072893;28;20211;-70
2023/05/13 02:06:56;;;;;;;18.13;16.33;;;14.40;99.90;;;;;;5072682;28;20274;-70
2023/05/13 02:09:22;;;;;;;19.33;16.40;;;14.30;99.90;;;;;;5072953;28;20620;-70
2023/05/13 02:11:48;;;;;;;19.73;17.70;;;14.40;99.90;;;;;;5072867;28;20259;-70
2023/05/13 02:14:13;;;;;;;19.27;16.47;;;14.40;99.90;;;;;;5072721;28;20177;-69
2023/05/13 02:16:39;;;;;;;18.60;16.77;;;14.40;99.90;;;;;;5072638;28;20224;-70
2023/05/13 02:19:05;;;;;;;18.33;16.43;;;14.40;99.90;;;;;;5072844;28;20596;-70
2023/05/13 02:21:31;;;;;;;19.80;17.40;;;14.30;99.90;;;;;;5072189;28;20561;-71
2023/05/13 02:23:56;;;;;;;18.93;15.70;;;14.20;99.90;;;;;;5072783;28;20180;-71
2023/05/13 02:26:23;;;;;;;20.37;16.77;;;14.10;99.90;;;;;;5072605;28;20220;-71
2023/05/13 02:28:49;;;;;;;18.07;16.20;;;14.10;99.90;;;;;;5072781;28;20211;-70
2023/05/13 02:31:14;;;;;;;18.93;16.97;;;14.20;99.90;;;;;;5072758;28;20280;-70
2023/05/13 02:33:40;;;;;;;18.73;16.73;;;14.20;99.90;;;;;;5072786;28;20656;-70
2023/05/13 02:36:06;;;;;;;19.27;17.23;;;14.30;99.90;;;;;;5072367;28;20646;-71
2023/05/13 02:38:32;;;;;;;20.40;18.27;;;14.30;99.90;;;;;;5072590;28;20204;-70
2023/05/13 02:40:58;;;;;;;24.73;19.00;;;14.30;99.90;;;;;;5072628;28;20192;-70
2023/05/13 02:43:23;;;;;;;20.13;18.23;;;14.30;99.90;;;;;;5072175;28;20251;-70
2023/05/13 02:45:49;;;;;;;19.07;17.13;;;14.20;99.90;;;;;;5072679;28;20176;-70
2023/05/13 02:48:15;;;;;;;19.77;17.77;;;14.20;99.90;;;;;;5072626;28;20628;-72
2023/05/13 02:50:40;;;;;;;20.63;18.43;;;14.20;99.90;;;;;;5072309;28;20646;-69
2023/05/13 02:53:06;;;;;;;21.90;18.73;;;14.10;99.90;;;;;;5072629;28;20203;-70
2023/05/13 02:55:32;;;;;;;20.50;18.20;;;14.10;99.90;;;;;;5072458;28;20169;-70
2023/05/13 02:57:57;;;;;;;20.70;18.60;;;14.20;99.90;;;;;;5072366;28;20220;-71
2023/05/13 03:00:23;;;;;;;20.10;18.10;;;14.10;99.90;;;;;;5072280;28;20298;-71
2023/05/13 03:02:49;;;;;;;23.53;18.27;;;14.10;99.90;;;;;;5072311;28;20278;-70
2023/05/13 03:05:14;;;;;;;21.27;18.30;;;14.10;99.90;;;;;;5072125;28;20172;-70
2023/05/13 03:07:40;;;;;;;21.47;17.83;;;14.20;99.90;;;;;;5072320;28;20176;-70
2023/05/13 03:10:06;;;;;;;18.97;17.13;;;14.10;99.90;;;;;;5072181;28;20169;-70
2023/05/13 03:12:32;;;;;;;20.03;17.93;;;14.10;99.90;;;;;;5072131;28;20196;-70
2023/05/13 03:14:58;;;;;;;21.00;18.80;;;14.10;99.90;;;;;;5071984;28;20173;-70
2023/05/13 03:17:24;;;;;;;21.20;17.73;;;14.10;99.90;;;;;;5071839;28;20209;-70
2023/05/13 03:19:50;;;;;;;21.37;18.83;;;14.00;99.90;;;;;;5071532;28;20604;-71
2023/05/13 03:22:16;;;;;;;20.00;17.97;;;14.00;99.90;;;;;;5072141;28;20176;-70
2023/05/13 03:24:43;;;;;;;20.03;17.87;;;14.00;99.90;;;;;;5071974;28;20507;-70
2023/05/13 03:27:08;;;;;;;19.40;17.47;;;14.00;99.90;;;;;;5072198;28;20173;-70
2023/05/13 03:29:34;;;;;;;20.33;18.23;;;14.00;99.90;;;;;;5072233;28;20172;-71
2023/05/13 03:32:00;;;;;;;20.20;17.60;;;14.00;99.90;;;;;;5072123;28;20260;-70
2023/05/13 03:34:25;;;;;;;19.70;17.70;;;14.00;99.90;;;;;;5071568;28;20169;-71
2023/05/13 03:36:51;;;;;;;19.17;17.37;;;13.90;99.90;;;;;;5072184;28;20605;-71
2023/05/13 03:39:16;;;;;;;26.93;17.67;;;13.90;99.90;;;;;;5071943;28;20256;-69
2023/05/13 03:41:43;;;;;;;22.63;17.80;;;13.80;99.90;;;;;;5072014;28;20176;-70
2023/05/13 03:44:08;;;;;;;20.30;18.20;;;13.90;99.90;;;;;;5071912;28;20172;-71
2023/05/13 03:46:34;;;;;;;21.13;18.73;;;14.00;99.90;;;;;;5071836;28;20176;-70
2023/05/13 03:48:59;;;;;;;19.97;17.80;;;13.90;99.90;;;;;;5071694;28;20183;-70
2023/05/13 03:51:25;;;;;;;20.07;17.97;;;13.90;99.90;;;;;;5071969;28;20637;-70
2023/05/13 03:53:51;;;;;;;22.73;18.33;;;13.70;99.90;;;;;;5071703;28;20190;-71
2023/05/13 03:56:16;;;;;;;20.30;18.30;;;13.70;99.90;;;;;;5074877;28;20172;-70
2023/05/13 03:58:42;;;;;;;20.60;18.57;;;13.70;99.90;;;;;;5075131;28;20199;-69
2023/05/13 04:01:07;;;;;;;20.20;18.20;;;13.60;99.90;;;;;;5075541;28;20169;-70
2023/05/13 04:03:33;;;;;;;20.77;18.57;;;13.60;99.90;;;;;;5074923;28;20655;-70
2023/05/13 04:06:00;;;;;;;20.33;18.30;;;13.60;99.90;;;;;;5075215;28;20176;-71
2023/05/13 04:08:25;;;;;;;19.97;18.07;;;13.60;99.90;;;;;;5074551;28;20222;-70
2023/05/13 04:10:51;;;;;;;20.77;18.60;;;13.70;99.90;;;;;;5075118;28;20176;-70
2023/05/13 04:13:17;;;;;;;21.70;18.20;;;13.70;99.90;;;;;;5074940;28;20188;-70
2023/05/13 04:15:43;;;;;;;21.87;19.53;;;13.70;99.90;;;;;;5074653;28;20175;-70
2023/05/13 04:18:08;;;;;;;21.90;18.70;;;13.80;99.90;;;;;;5074625;28;20642;-70
2023/05/13 04:20:37;;;;;;;19.87;17.87;;;13.90;99.90;;;;;;5074562;28;20263;-70
2023/05/13 04:23:03;;;;;;;20.13;18.13;;;14.00;99.90;;;;;;5074887;28;20184;-70
2023/05/13 04:25:28;;;;;;;19.97;17.93;;;14.20;99.90;;;;;;5074966;28;20639;-70
2023/05/13 04:27:54;;;;;;;18.37;16.40;;;14.60;99.90;;;;;;5074311;28;20180;-71
2023/05/13 04:30:20;;;;;;;19.33;16.27;;;15.20;99.90;;;;;;5074543;28;20267;-71
2023/05/13 04:32:45;;;;;;;16.87;15.17;;;15.60;99.90;;;;;;5074492;28;20513;-71
2023/05/13 04:35:11;;;;;;;19.50;14.93;;;16.20;99.90;;;;;;5074552;28;20177;-71
2023/05/13 04:37:37;;;;;;;16.37;14.67;;;16.90;92.10;;;;;;5074546;28;20258;-71
2023/05/13 04:40:03;;;;;;;15.73;13.97;;;17.50;60.30;;;;;;5074388;28;20522;-71
2023/05/13 04:42:28;;;;;;;18.45;14.10;;;18.00;35.20;;;;;;5074296;28;20179;-72
2023/05/13 04:44:54;;;;;;;17.60;13.15;;;18.60;8.50;;;;;;5074393;28;20244;-71
2023/05/13 04:47:20;;;;;;;13.57;12.20;;;19.30;1.00;;;;;;5073881;28;20199;-70
2023/05/13 04:49:45;;;;;;;13.63;12.25;;;19.90;1.00;;;;;;5074164;28;20169;-71
2023/05/13 04:52:14;;;;;;;13.18;11.98;;;20.30;1.00;;;;;;5074379;28;20192;-70
2023/05/13 04:54:40;;;;;;;14.48;11.65;;;20.70;1.00;;;;;;5074052;28;20181;-70
2023/05/13 04:57:05;;;;;;;13.10;11.60;;;21.60;1.00;;;;;;5073780;28;20733;-71
2023/05/13 04:59:31;;;;;;;11.93;10.70;;;22.10;1.00;;;;;;5073930;28;20264;-70
2023/05/13 05:01:57;;;;;;;13.20;11.30;;;22.60;1.00;;;;;;5073587;28;20606;-70
2023/05/13 05:04:23;;;;;;;12.45;11.15;;;23.10;99.90;;;;;;5073995;28;20175;-70
2023/05/13 05:06:49;;;;;;;10.98;9.88;;;23.50;1.00;;;;;;5073572;28;20165;-70
2023/05/13 05:09:16;;;;;;;13.88;10.57;;;23.90;99.90;;;;;;5073622;28;20180;-71
2023/05/13 05:11:42;;;;;;;11.15;10.02;;;24.30;1.00;;;;;;5073708;28;20263;-71
2023/05/13 05:14:07;;;;;;;10.30;9.48;;;24.90;1.00;;;;;;5073564;28;20635;-71
2023/05/13 05:16:33;;;;;;;11.10;10.10;;;25.00;1.00;;;;;;5055499;28;20249;-70
2023/05/13 05:18:59;;;;;;;11.10;10.10;;;24.90;99.90;;;;;;5073491;28;20299;-70
2023/05/13 05:21:24;;;;;;;11.32;9.95;;;24.50;1.00;;;;;;5073337;28;20257;-71
2023/05/13 05:23:50;;;;;;;10.32;9.27;;;24.70;1.00;;;;;;5073594;28;20176;-71
2023/05/13 05:26:15;;;;;;;9.57;8.80;;;24.50;91.70;;;;;;5073266;28;20169;-71
2023/05/13 05:28:42;;;;;;;9.77;8.73;;;24.40;1.00;;;;;;5073322;28;20172;-71
2023/05/13 05:31:08;;;;;;;9.38;8.45;;;24.70;84.00;;;;;;5072845;28;20267;-71
2023/05/13 05:33:35;;;;;;;9.18;8.38;;;25.10;1.00;;;;;;5073062;28;20219;-70
2023/05/13 05:36:01;;;;;;;8.38;7.68;;;24.00;1.30;;;;;;5073460;28;20176;-71
2023/05/13 05:38:26;;;;;;;8.48;7.82;;;24.70;99.90;;;;;;5073444;28;20720;-72
2023/05/13 05:40:52;;;;;;;8.75;7.95;;;24.60;99.90;;;;;;5072431;28;20168;-71
2023/05/13 05:43:18;;;;;;;8.55;7.55;;;23.70;1.00;;;;;;5073450;28;20211;-71
2023/05/13 05:45:45;;;;;;;8.32;7.63;;;22.80;99.90;;;;;;5072635;28;20173;-71
2023/05/13 05:48:10;;;;;;;8.88;8.18;;;22.80;1.00;;;;;;5072874;28;20183;-70
2023/05/13 05:50:36;;;;;;;8.70;7.93;;;22.30;99.90;;;;;;5072952;28;20169;-71
2023/05/13 05:53:02;;;;;;;8.50;7.80;;;21.30;1.00;;;;;;5072908;28;20172;-70
2023/05/13 05:55:30;;;;;;;9.25;8.27;;;21.20;99.90;;;;;;5072621;28;20217;-70
2023/05/13 05:57:56;;;;;;;9.23;8.02;;;21.40;99.90;;;;;;5072687;28;20216;-72
2023/05/13 06:00:22;;;;;;;9.05;7.95;;;21.10;99.90;;;;;;5072541;28;20164;-71
2023/05/13 06:02:48;;;;;;;9.55;8.63;;;21.10;99.90;;;;;;5072673;28;20668;-70
2023/05/13 06:05:14;;;;;;;11.20;8.95;;;20.30;99.90;;;;;;5073129;28;20180;-70
2023/05/13 06:07:40;;;;;;;11.90;8.68;;;20.20;1.00;;;;;;5072472;28;20173;-71
2023/05/13 06:10:06;;;;;;;11.20;8.25;;;20.40;1.00;;;;;;5072563;28;20175;-71
2023/05/13 06:12:32;;;;;;;13.50;8.38;;;20.00;1.00;;;;;;5072199;28;20211;-70
2023/05/13 06:14:58;;;;;;;9.60;7.80;;;19.90;1.00;;;;;;5071970;28;20168;-70
2023/05/13 06:17:24;;;;;;;11.07;7.82;;;19.80;1.00;;;;;;5071172;28;20269;-72
2023/05/13 06:19:50;;;;;;;8.52;7.47;;;19.80;1.00;;;;;;5072129;28;20630;-71
2023/05/13 06:22:16;;;;;;;9.20;7.93;;;20.70;1.00;;;;;;5072506;28;20660;-71
2023/05/13 06:24:43;;;;;;;8.27;7.50;;;21.70;1.00;;;;;;5072054;28;20168;-71
2023/05/13 06:27:12;;;;;;;7.70;7.00;;;22.40;99.90;;;;;;5071847;28;20177;-71
2023/05/13 06:29:38;;;;;;;7.97;7.28;;;23.10;99.90;;;;;;5053922;28;20318;-71
2023/05/13 06:32:04;;;;;;;9.02;7.35;;;24.20;1.00;;;;;;5072363;28;20165;-72
2023/05/13 06:34:30;;;;;;;7.82;7.18;;;24.70;99.90;;;;;;5072071;28;20267;-71
2023/05/13 06:36:55;;;;;;;7.82;7.03;;;24.90;1.00;;;;;;5072181;28;20353;-71
2023/05/13 06:39:21;;;;;;;7.68;7.07;;;24.50;99.90;;;;;;5072076;28;20600;-71
2023/05/13 06:41:47;;;;;;;7.53;6.82;;;23.40;1.00;;;;;;5072667;28;20175;-71
2023/05/13 06:44:12;;;;;;;9.27;6.90;;;22.50;1.00;;;;;;5071980;28;20163;-72
2023/05/13 06:46:38;;;;;;;7.57;6.88;;;22.40;94.80;;;;;;5072361;28;20196;-71
2023/05/13 06:49:04;;;;;;;11.38;7.30;;;23.10;1.00;;;;;;5054112;28;20173;-71
2023/05/13 06:51:31;;;;;;;9.55;7.15;;;24.40;57.30;;;;;;5072529;28;20287;-72
2023/05/13 06:53:57;;;;;;;7.53;6.60;;;25.40;1.00;;;;;;5072194;28;20535;-73
2023/05/13 06:56:23;;;;;;;8.52;6.75;;;26.10;99.90;;;;;;5071953;28;20161;-72
2023/05/13 06:58:52;;;;;;;7.32;6.63;;;25.70;99.90;;;;;;5072194;28;20219;-73
2023/05/13 07:01:18;;;;;;;7.70;6.15;;;26.00;1.00;;;;;;5071917;28;20165;-72
2023/05/13 07:03:44;;;;;;;7.07;6.47;;;26.70;99.90;;;;;;5072080;28;20275;-72
2023/05/13 07:06:10;;;;;;;6.90;6.35;;;27.80;1.00;;;;;;5072136;28;20173;-71
2023/05/13 07:08:36;;;;;;;7.20;6.10;;;28.20;1.00;;;;;;5072062;28;20659;-72
2023/05/13 07:11:01;;;;;;;6.13;5.65;;;29.20;1.00;;;;;;5071648;28;20172;-71
2023/05/13 07:13:28;;;;;;;6.78;5.97;;;30.40;99.90;;;;;;5071969;28;20188;-70
2023/05/13 07:15:54;;;;;;;6.47;5.97;;;29.80;99.90;;;;;;5072151;28;20532;-71
2023/05/13 07:18:20;;;;;;;7.38;6.53;;;30.80;99.90;;;;;;5071964;28;20200;-71
2023/05/13 07:20:45;;;;;;;6.93;6.22;;;31.50;99.90;;;;;;5071646;28;20373;-71
2023/05/13 07:23:11;;;;;;;6.40;5.90;;;31.40;99.90;;;;;;5071996;28;20171;-71
2023/05/13 07:25:37;;;;;;;6.68;6.28;;;32.30;99.90;;;;;;5071837;28;20648;-72
2023/05/13 07:28:03;;;;;;;8.25;6.30;;;30.40;99.90;;;;;;5071961;28;20169;-72
2023/05/13 07:30:29;;;;;;;6.75;5.80;;;29.90;99.90;;;;;;5075856;28;20531;-71
2023/05/13 07:32:54;;;;;;;7.13;5.88;;;30.50;99.90;;;;;;5075594;28;20165;-71
2023/05/13 07:35:20;;;;;;;6.53;5.90;;;32.00;99.90;;;;;;5075506;28;20183;-70
2023/05/13 07:37:46;;;;;;;6.40;5.82;;;32.50;99.90;;;;;;5075797;28;20220;-72
2023/05/13 07:40:12;;;;;;;8.30;5.93;;;32.10;99.90;;;;;;5074555;28;20164;-71
2023/05/13 07:42:38;;;;;;;6.25;5.72;;;32.20;99.90;;;;;;5075731;28;20531;-71
2023/05/13 07:45:05;;;;;;;6.88;6.25;;;32.60;99.90;;;;;;5075592;28;20173;-71
2023/05/13 07:47:32;;;;;;;6.25;5.63;;;33.60;99.90;;;;;;5057583;28;20256;-71
2023/05/13 07:49:57;;;;;;;6.72;6.05;;;34.10;99.90;;;;;;5075459;28;20255;-72
2023/05/13 07:52:23;;;;;;;6.60;6.00;;;34.00;99.90;;;;;;5057584;28;20652;-72
2023/05/13 07:54:49;;;;;;;6.05;5.55;;;34.30;99.90;;;;;;5075055;28;20172;-73
2023/05/13 07:57:15;;;;;;;6.13;5.65;;;32.60;99.90;;;;;;5074750;28;20196;-71
2023/05/13 07:59:40;;;;;;;6.53;5.93;;;31.50;99.90;;;;;;5075183;28;20160;-70
2023/05/13 08:02:07;;;;;;;7.22;6.70;;;31.70;99.90;;;;;;5075365;28;20172;-72
2023/05/13 08:04:33;;;;;;;6.60;5.95;;;31.10;99.90;;;;;;5075246;28;20173;-72
2023/05/13 08:07:00;;;;;;;6.18;5.68;;;31.50;99.90;;;;;;5074819;28;20184;-73
2023/05/13 08:09:26;;;;;;;7.43;6.03;;;32.10;99.90;;;;;;5074784;28;20513;-73
2023/05/13 08:11:51;;;;;;;6.85;6.25;;;32.50;99.90;;;;;;5074639;28;20172;-72
2023/05/13 08:14:17;;;;;;;6.88;6.22;;;32.20;99.90;;;;;;5074589;28;20180;-72
2023/05/13 08:16:43;;;;;;;6.95;5.90;;;32.10;99.90;;;;;;5074694;28;20169;-72
2023/05/13 08:19:08;;;;;;;9.00;5.93;;;31.80;99.90;;;;;;5074862;28;20180;-72
2023/05/13 08:21:34;;;;;;;6.28;5.68;;;31.50;99.90;;;;;;5073945;28;20220;-73
2023/05/13 08:24:00;;;;;;;6.85;6.22;;;31.80;99.90;;;;;;5074434;28;20714;-74
2023/05/13 08:26:26;;;;;;;6.90;6.30;;;32.30;99.90;;;;;;5074954;28;20200;-73
2023/05/13 08:28:51;;;;;;;7.00;5.90;;;32.40;99.90;;;;;;5075065;28;20252;-72
2023/05/13 08:31:17;;;;;;;6.70;6.13;;;32.50;99.90;;;;;;5074762;28;20647;-73
2023/05/13 08:33:44;;;;;;;6.65;6.00;;;32.90;99.90;;;;;;5074423;28;20535;-72
2023/05/13 08:36:10;;;;;;;7.78;6.22;;;32.70;99.90;;;;;;5074642;28;20161;-71
2023/05/13 08:38:36;;;;;;;8.90;6.10;;;32.00;99.90;;;;;;5074249;28;20262;-72
2023/05/13 08:41:05;;;;;;;7.88;6.13;;;32.10;99.90;;;;;;5073523;28;20222;-71
2023/05/13 08:43:33;;;;;;;7.90;6.63;;;32.30;99.90;;;;;;5074609;28;20195;-73
2023/05/13 08:46:02;;;;;;;6.28;5.72;;;32.20;99.90;;;;;;5073605;28;20180;-73
2023/05/13 08:48:28;;;;;;;7.68;6.30;;;32.60;99.90;;;;;;5074298;28;20180;-73
2023/05/13 08:50:55;;;;;;;7.30;6.55;;;33.20;99.90;;;;;;5074265;28;20252;-72
2023/05/13 08:53:23;;;;;;;7.00;6.40;;;31.90;99.90;;;;;;5072988;28;20195;-71
2023/05/13 08:55:50;;;;;;;6.95;6.20;;;31.10;99.90;;;;;;5074186;28;20191;-74
2023/05/13 08:58:15;;;;;;;7.03;6.22;;;31.60;99.90;;;;;;5074296;28;20216;-74
2023/05/13 09:00:41;;;;;;;7.82;7.15;;;32.20;99.90;;;;;;5074124;28;20171;-73
2023/05/13 09:03:07;;;;;;;10.05;6.63;;;32.10;99.90;;;;;;5074055;28;20538;-72
2023/05/13 09:05:34;;;;;;;7.90;6.60;;;31.60;99.90;;;;;;5073510;28;20639;-73
2023/05/13 09:08:07;;;;;;;7.53;6.63;;;31.30;99.90;;;;;;5073728;28;20172;-72
2023/05/13 09:10:32;;;;;;;7.47;6.80;;;31.40;99.90;;;;;;5073978;28;20272;-73
2023/05/13 09:13:00;;;;;;;7.47;6.78;;;32.00;99.90;;;;;;5073635;28;20192;-72
2023/05/13 09:15:27;;;;;;;8.27;7.10;;;31.60;99.90;;;;;;5073748;28;20168;-73
2023/05/13 09:17:57;;;;;;;9.50;7.00;;;31.80;99.90;;;;;;5073334;28;20231;-73
2023/05/13 09:20:26;;;;;;;9.05;6.93;;;32.40;99.90;;;;;;5073568;28;20215;-74
2023/05/13 09:23:05;;;;;;;9.63;7.40;;;32.90;99.90;;;;;;5072888;28;20179;-73
2023/05/13 09:25:31;;;;;;;7.60;6.90;;;32.70;99.90;;;;;;5074077;28;20204;-73
2023/05/13 09:28:02;;;;;;;10.40;6.82;;;32.30;99.90;;;;;;5073372;28;20238;-72
2023/05/13 09:30:51;;;;;;;7.50;6.80;;;32.60;99.90;;;;;;5073389;28;20222;-74
2023/05/13 09:33:21;;;;;;;8.13;6.93;;;33.20;99.90;;;;;;5072555;28;20204;-73
2023/05/13 09:35:51;;;;;;;8.38;6.97;;;32.90;99.90;;;;;;5073412;28;20172;-73
2023/05/13 09:38:37;;;;;;;9.52;8.63;;;32.80;99.90;;;;;;5073546;28;20379;-74
2023/05/13 09:41:05;;;;;;;9.25;8.32;;;32.90;99.90;;;;;;5073333;28;20262;-73
2023/05/13 09:43:34;;;;;;;9.30;8.30;;;32.90;99.90;;;;;;5072905;28;20272;-74
2023/05/13 09:46:01;;;;;;;10.48;8.63;;;32.10;99.90;;;;;;5055374;28;20578;-74
2023/05/13 09:48:29;;;;;;;8.90;8.20;;;32.10;99.90;;;;;;5073046;28;20168;-73
2023/05/13 09:50:56;;;;;;;9.23;8.50;;;32.30;99.90;;;;;;5072820;28;20169;-74
2023/05/13 09:53:26;;;;;;;9.98;9.07;;;32.50;99.90;;;;;;5072930;28;20157;-72
2023/05/13 09:55:53;;;;;;;9.10;8.23;;;31.90;99.90;;;;;;5072593;28;20184;-73
2023/05/13 09:58:20;;;;;;;9.43;8.43;;;32.10;99.90;;;;;;5072589;28;20693;-72
2023/05/13 10:00:47;;;;;;;8.40;7.55;;;30.30;99.90;;;;;;5072688;28;20176;-73
2023/05/13 10:03:13;;;;;;;8.80;7.90;;;31.00;99.90;;;;;;5053979;28;20629;-74
2023/05/13 10:05:40;;;;;;;11.90;8.93;;;31.70;99.90;;;;;;5072493;28;20176;-73
2023/05/13 10:08:10;;;;;;;9.80;8.82;;;32.30;99.90;;;;;;5072981;28;20180;-74
2023/05/13 10:10:37;;;;;;;9.43;8.23;;;32.60;99.90;;;;;;5072287;28;20701;-73
2023/05/13 10:13:08;;;;;;;10.88;8.15;;;32.10;99.90;;;;;;5072676;28;20647;-73
2023/05/13 10:15:34;;;;;;;8.75;7.88;;;31.00;99.90;;;;;;5072603;28;20533;-73
2023/05/13 10:18:01;;;;;;;8.40;7.55;;;29.70;99.90;;;;;;5072630;28;20216;-73
2023/05/13 10:20:27;;;;;;;9.75;8.95;;;30.50;99.90;;;;;;5071908;28;20212;-73
2023/05/13 10:22:53;;;;;;;9.80;8.90;;;30.90;99.90;;;;;;5072572;28;20214;-73
2023/05/13 10:25:19;;;;;;;11.35;10.15;;;31.20;99.90;;;;;;5072047;28;20196;-73
2023/05/13 10:27:46;;;;;;;11.65;8.82;;;32.00;99.90;;;;;;5072575;28;20196;-73
2023/05/13 10:30:12;;;;;;;9.90;8.98;;;31.90;99.90;;;;;;5072130;28;20210;-73
2023/05/13 10:32:38;;;;;;;9.52;8.73;;;32.00;99.90;;;;;;5072367;28;20172;-72
2023/05/13 10:35:10;;;;;;;9.85;9.05;;;31.90;99.90;;;;;;5071774;28;20203;-73
2023/05/13 10:38:13;;;;;;;10.68;9.57;;;32.10;99.90;;;;;;5072323;28;20216;-71
2023/05/13 10:40:57;;;;;;;10.75;8.90;;;32.60;99.90;;;;;;5072308;28;20616;-72
2023/05/13 10:43:28;;;;;;;10.30;9.38;;;31.70;99.90;;;;;;5071920;28;20214;-73
2023/05/13 10:46:02;;;;;;;10.55;9.48;;;31.40;99.90;;;;;;5071891;28;20512;-72
2023/05/13 10:48:44;;;;;;;9.32;8.52;;;31.10;99.90;;;;;;5071567;28;20272;-72
2023/05/13 10:51:14;;;;;;;9.82;8.75;;;31.50;99.90;;;;;;5072347;28;20523;-74
2023/05/13 10:53:48;;;;;;;9.57;8.63;;;31.60;99.90;;;;;;5072124;28;20210;-73
2023/05/13 10:56:14;;;;;;;9.75;8.90;;;32.00;99.90;;;;;;5072330;28;20172;-73
2023/05/13 10:58:40;;;;;;;9.90;8.80;;;31.70;99.90;;;;;;5071115;28;20635;-72
2023/05/13 11:01:22;;;;;;;10.48;9.38;;;31.40;99.90;;;;;;5054264;28;20176;-72
2023/05/13 11:03:53;;;;;;;10.57;9.63;;;30.80;99.90;;;;;;5072289;28;20204;-74
2023/05/13 11:06:21;;;;;;;10.20;9.32;;;30.30;99.90;;;;;;5075935;28;20180;-71
2023/05/13 11:08:49;;;;;;;9.43;8.52;;;29.30;1.00;;;;;;5076726;28;20180;-73
2023/05/13 11:11:21;;;;;;;8.57;7.97;;;29.90;1.00;;;;;;5075842;28;20168;-73
2023/05/13 11:14:09;;;;;;;10.90;9.18;;;30.20;99.90;;;;;;5075909;28;20663;-73
2023/05/13 11:16:36;;;;;;;9.32;8.52;;;30.10;99.90;;;;;;5075901;28;20168;-74
2023/05/13 11:19:03;;;;;;;11.43;10.43;;;30.10;99.90;;;;;;5075538;28;20188;-74
2023/05/13 11:21:34;;;;;;;11.30;10.25;;;29.90;1.00;;;;;;5074464;28;20311;-73
2023/05/13 11:24:05;;;;;;;11.68;9.40;;;29.50;1.00;;;;;;5075724;28;20176;-71
2023/05/13 11:26:55;;;;;;;11.30;9.00;;;28.80;1.00;;;;;;5075824;28;20169;-72
2023/05/13 11:29:27;;;;;;;11.10;10.02;;;30.20;1.00;;;;;;5075377;28;20179;-71
2023/05/13 11:31:55;;;;;;;12.05;10.93;;;30.40;1.00;;;;;;5075906;28;20173;-72
2023/05/13 11:34:21;;;;;;;11.45;10.52;;;30.30;1.00;;;;;;5075410;28;20219;-72
2023/05/13 11:36:57;;;;;;;10.93;9.85;;;30.30;1.00;;;;;;5075335;28;20188;-73
2023/05/13 11:39:25;;;;;;;12.23;11.15;;;30.00;1.00;;;;;;5075708;28;20210;-72
2023/05/13 11:41:52;;;;;;;12.20;10.77;;;29.30;1.00;;;;;;5075175;28;20186;-72
2023/05/13 11:44:23;;;;;;;10.98;9.95;;;28.30;1.00;;;;;;5075468;28;20255;-72
2023/05/13 11:47:01;;;;;;;11.50;10.35;;;28.40;98.70;;;;;;5075380;28;20168;-73
2023/05/13 11:49:40;;;;;;;12.25;10.98;;;28.60;85.60;;;;;;5075349;28;20699;-73
2023/05/13 11:52:11;;;;;;;10.00;9.30;;;28.40;99.90;;;;;;5075092;28;20176;-73
2023/05/13 11:55:03;;;;;;;10.30;9.25;;;28.00;94.80;;;;;;5074330;28;20179;-73
2023/05/13 11:57:33;;;;;;;8.68;8.02;;;28.40;1.00;;;;;;5070373;28;20373;-72
2023/05/13 12:00:06;;;;;;;8.65;7.95;;;28.30;1.00;;;;;;5075127;28;20179;-71
2023/05/13 12:02:42;;;;;;;9.23;8.38;;;28.00;1.00;;;;;;5074413;28;20527;-70
2023/05/13 12:05:13;;;;;;;9.23;8.00;;;27.90;1.00;;;;;;5074678;28;20180;-70
2023/05/13 12:07:38;;;;;;;9.55;8.65;;;27.60;1.00;;;;;;5075192;28;20254;-71
2023/05/13 12:10:06;;;;;;;10.80;9.70;;;26.60;90.00;;;;;;5074804;28;20571;-70
2023/05/13 12:12:39;;;;;;;9.27;8.38;;;26.10;1.00;;;;;;5074383;28;20234;-70
2023/05/13 12:15:14;;;;;;;10.98;10.02;;;26.10;99.90;;;;;;5073342;28;20176;-71
2023/05/13 12:17:43;;;;;;;13.35;9.85;;;26.00;99.90;;;;;;5074423;28;20218;-74
2023/05/13 12:20:16;;;;;;;11.50;10.40;;;26.20;1.00;;;;;;5074258;28;20236;-71
2023/05/13 12:22:42;;;;;;;12.40;10.18;;;26.00;99.90;;;;;;5074302;28;20168;-71
2023/05/13 12:25:35;;;;;;;11.00;9.88;;;26.10;56.60;;;;;;5074757;28;20638;-71
2023/05/13 12:28:23;;;;;;;10.20;9.30;;;26.00;1.00;;;;;;5074475;28;20632;-70
2023/05/13 12:30:54;;;;;;;11.10;10.00;;;25.50;99.90;;;;;;5074491;28;20628;-72
2023/05/13 12:33:23;;;;;;;10.20;8.95;;;25.20;1.00;;;;;;5074873;28;20187;-72
2023/05/13 12:35:51;;;;;;;11.40;10.40;;;25.20;1.00;;;;;;5073833;28;20176;-72
2023/05/13 12:38:19;;;;;;;11.50;8.95;;;25.20;1.00;;;;;;5074433;28;20564;-70
2023/05/13 12:40:45;;;;;;;8.07;7.40;;;25.50;1.00;;;;;;5074570;28;20682;-72